Time;durP1;ratioP1;P1;durP2;ratioP2;P2;SDS_P1;SDS_P2;PMS_P1;PMS_P2;Temp;Humidity;BMP_temperature;BMP_pressure;BME280_temperature;BME280_humidity;BME280_pressure;Samples;Min_cycle;Max_cycle;Signal;HPM_P1;HPM_P2
2022/09/25 00:00:36;;;;;;;45.58;43.08;;;;;;;18.06;72.71;101515.56;5009982;28;103946;-55
2022/09/25 00:03:03;;;;;;;44.95;42.60;;;;;;;18.07;72.75;101512.53;5002352;28;102179;-54
2022/09/25 00:05:29;;;;;;;48.50;45.83;;;;;;;18.07;72.56;101508.94;5003210;28;102720;-54
2022/09/25 00:07:57;;;;;;;44.88;42.15;;;;;;;18.07;72.59;101514.44;5008660;28;103025;-54
2022/09/25 00:10:28;;;;;;;49.10;46.40;;;;;;;18.06;72.73;101519.13;5003570;28;104044;-54
2022/09/25 00:12:54;;;;;;;49.97;47.30;;;;;;;18.06;72.63;101516.38;5006946;28;102231;-54
2022/09/25 00:15:21;;;;;;;46.42;43.95;;;;;;;18.06;72.83;101516.38;4994746;28;102024;-54
2022/09/25 00:17:49;;;;;;;42.35;40.10;;;;;;;18.06;72.95;101512.81;4992990;28;102363;-54
2022/09/25 00:20:17;;;;;;;52.42;49.63;;;;;;;18.05;72.40;101516.69;4994723;28;104314;-55
2022/09/25 00:22:43;;;;;;;44.10;41.80;;;;;;;18.05;72.42;101511.19;4996182;28;102127;-54
2022/09/25 00:25:13;;;;;;;48.17;45.58;;;;;;;18.05;72.39;101505.69;4992044;28;102319;-54
2022/09/25 00:27:42;;;;;;;48.80;46.20;;;;;;;18.05;72.39;101500.19;4981839;28;102567;-54
2022/09/25 00:30:10;;;;;;;49.97;47.13;;;;;;;18.05;72.25;101500.19;4995745;28;103934;-54
2022/09/25 00:32:38;;;;;;;50.95;48.17;;;;;;;18.05;72.66;101505.69;4995537;28;102600;-55
2022/09/25 00:35:05;;;;;;;52.20;49.30;;;;;;;18.03;72.79;101505.97;4995563;28;102217;-55
2022/09/25 00:37:32;;;;;;;53.10;50.10;;;;;;;18.04;72.71;101504.88;4996299;28;102208;-55
2022/09/25 00:39:59;;;;;;;46.78;44.20;;;;;;;18.05;72.34;101505.69;5020056;28;104995;-55
2022/09/25 00:42:25;;;;;;;49.58;46.88;;;;;;;18.05;72.86;101500.19;4993827;28;102246;-54
2022/09/25 00:44:58;;;;;;;48.78;46.08;;;;;;;18.04;72.40;101501.31;4998821;28;102488;-55
2022/09/25 00:47:30;;;;;;;48.42;45.67;;;;;;;18.04;72.88;101498.53;5014918;28;102516;-54
2022/09/25 00:50:00;;;;;;;51.65;48.65;;;;;;;18.04;72.37;101501.31;4996034;28;103861;-54
2022/09/25 00:52:27;;;;;;;51.47;48.70;;;;;;;18.02;72.73;101502.41;4993994;28;102119;-55
2022/09/25 00:54:57;;;;;;;48.50;45.80;;;;;;;18.03;72.78;101500.47;4991310;28;102240;-54
2022/09/25 00:57:28;;;;;;;51.70;48.90;;;;;;;18.02;72.54;101502.41;5014832;28;102611;-54
2022/09/25 01:00:01;;;;;;;48.45;45.75;;;;;;;18.02;72.78;101496.88;5005284;28;103852;-55
2022/09/25 01:02:30;;;;;;;50.20;47.40;;;;;;;18.01;72.58;101495.25;4998073;28;102120;-55
2022/09/25 01:05:00;;;;;;;47.85;45.22;;;;;;;18.04;72.84;101504.06;4994972;28;102046;-55
2022/09/25 01:07:28;;;;;;;49.65;46.88;;;;;;;18.01;72.45;101500.78;4996164;28;102041;-54
2022/09/25 01:09:58;;;;;;;51.47;48.63;;;;;;;18.03;72.80;101508.72;4998816;28;104043;-54
2022/09/25 01:12:24;;;;;;;44.13;41.65;;;;;;;18.03;72.32;101508.72;4971421;28;102382;-55
2022/09/25 01:14:51;;;;;;;53.63;50.65;;;;;;;18.02;72.61;101507.91;4960115;28;102368;-55
2022/09/25 01:17:28;;;;;;;53.30;50.25;;;;;;;18.04;73.02;101517.81;4976567;28;102347;-55
2022/09/25 01:20:09;;;;;;;52.05;49.10;;;;;;;18.01;72.84;101517.28;4964233;28;104099;-54
2022/09/25 01:22:49;;;;;;;49.55;46.75;;;;;;;18.01;72.44;101511.78;4946876;28;102701;-56
2022/09/25 01:25:33;;;;;;;51.05;48.28;;;;;;;18.00;72.78;101499.16;4954800;28;102142;-54
2022/09/25 01:28:16;;;;;;;49.95;47.05;;;;;;;18.01;72.39;101510.97;4968306;28;102159;-55
2022/09/25 01:30:49;;;;;;;49.58;46.78;;;;;;;18.00;72.56;101510.16;4974358;28;104072;-55
2022/09/25 01:33:20;;;;;;;52.53;49.47;;;;;;;18.01;72.47;101511.78;4974735;28;102260;-54
2022/09/25 01:35:53;;;;;;;53.25;50.20;;;;;;;18.01;72.87;101506.28;4956048;28;103948;-55
2022/09/25 01:38:30;;;;;;;57.25;53.85;;;;;;;18.01;72.80;101508.22;4960764;28;102636;-55
2022/09/25 01:41:06;;;;;;;52.45;49.45;;;;;;;18.00;72.85;101510.16;4941374;28;108035;-55
2022/09/25 01:43:38;;;;;;;50.13;47.17;;;;;;;18.00;72.81;101506.59;4955192;28;102317;-54
2022/09/25 01:46:10;;;;;;;54.20;51.00;;;;;;;18.00;72.56;101501.91;4955106;28;102044;-55
2022/09/25 01:48:40;;;;;;;47.55;44.83;;;;;;;18.00;72.32;101504.66;4951422;28;102320;-55
2022/09/25 01:51:15;;;;;;;52.53;49.53;;;;;;;18.00;72.51;101499.16;4954220;28;104125;-54
2022/09/25 01:53:47;;;;;;;54.22;51.20;;;;;;;17.99;72.85;101497.53;4950961;28;102231;-54
2022/09/25 01:56:19;;;;;;;50.10;47.30;;;;;;;17.99;72.49;101503.03;4938455;28;102487;-55
2022/09/25 01:58:51;;;;;;;47.28;44.45;;;;;;;18.00;72.48;101504.66;4952774;28;102196;-55
2022/09/25 02:01:23;;;;;;;51.10;48.17;;;;;;;18.00;72.86;101506.59;4953731;28;103852;-54
2022/09/25 02:03:55;;;;;;;48.05;45.35;;;;;;;18.00;72.34;101498.34;4955786;28;102048;-55
2022/09/25 02:06:23;;;;;;;46.92;44.15;;;;;;;17.97;72.62;101499.75;4966683;28;102286;-54
2022/09/25 02:08:55;;;;;;;49.22;46.22;;;;;;;17.99;72.87;101502.19;4954256;28;102656;-54
2022/09/25 02:11:27;;;;;;;52.58;49.58;;;;;;;17.98;72.97;101504.13;4975899;28;103901;-54
2022/09/25 02:14:01;;;;;;;51.33;48.40;;;;;;;17.99;72.81;101492.00;4990162;28;102300;-54
2022/09/25 02:16:34;;;;;;;49.92;47.03;;;;;;;17.98;72.96;101497.81;4997263;28;102164;-55
2022/09/25 02:21:52;;;;;;;49.05;46.15;;;;;;;17.99;72.72;101491.16;5001916;28;103903;-54
2022/09/25 02:24:23;;;;;;;53.42;50.25;;;;;;;17.97;72.83;101494.25;4998452;28;101877;-53
2022/09/25 02:26:50;;;;;;;49.85;47.00;;;;;;;17.98;73.00;101492.28;4997409;28;102379;-54
2022/09/25 02:29:19;;;;;;;51.67;48.80;;;;;;;17.97;72.54;101498.94;4983297;28;102149;-54
2022/09/25 02:31:52;;;;;;;51.47;48.58;;;;;;;17.97;72.83;101499.75;4982511;28;103928;-55
2022/09/25 02:34:20;;;;;;;51.33;48.45;;;;;;;17.97;72.71;101493.44;5007432;27;101895;-55
2022/09/25 02:36:46;;;;;;;48.17;45.35;;;;;;;17.96;73.02;101500.06;5016419;28;102182;-55
2022/09/25 02:39:16;;;;;;;46.15;43.45;;;;;;;17.96;72.49;101489.84;5015697;28;102647;-55
2022/09/25 02:42:04;;;;;;;47.60;44.92;;;;;;;17.97;72.71;101491.50;5001111;28;103968;-55
2022/09/25 02:44:44;;;;;;;46.80;44.13;;;;;;;17.95;72.70;101490.97;4997418;28;102496;-55
2022/09/25 02:47:23;;;;;;;48.70;45.92;;;;;;;17.96;73.19;101489.03;4990675;28;102551;-55
2022/09/25 02:49:58;;;;;;;48.70;45.77;;;;;;;17.95;72.86;101488.19;4998594;28;102178;-55
2022/09/25 02:52:32;;;;;;;48.20;45.47;;;;;;;17.95;72.77;101493.72;4996117;28;103942;-54
2022/09/25 02:55:05;;;;;;;51.05;48.13;;;;;;;17.96;72.99;101498.13;5012028;28;102231;-59
2022/09/25 02:57:42;;;;;;;45.20;42.63;;;;;;;17.95;72.75;101499.22;5001223;28;102066;-55
2022/09/25 03:00:09;;;;;;;49.05;46.20;;;;;;;17.95;73.00;101501.97;4999682;28;102223;-55
2022/09/25 03:02:39;;;;;;;48.03;45.30;;;;;;;17.95;73.04;101504.72;5017086;28;104238;-55
2022/09/25 03:05:09;;;;;;;44.33;41.80;;;;;;;17.96;72.74;101509.13;5001260;28;102391;-55
2022/09/25 03:08:41;;;;;;;49.22;46.35;;;;;;;17.95;73.03;101504.72;5010585;28;103440;-54
2022/09/25 03:10:36;;;;;;;49.20;46.33;;;;;;;17.95;73.01;101501.16;5010891;28;102140;-55
2022/09/25 03:13:14;;;;;;;44.03;41.45;;;;;;;17.95;72.50;101501.97;5016329;28;104026;-54
2022/09/25 03:15:44;;;;;;;46.30;43.50;;;;;;;17.94;72.50;101494.84;5016814;28;102248;-55
2022/09/25 03:18:13;;;;;;;44.22;41.63;;;;;;;17.94;72.85;101494.03;5013181;28;102677;-58
2022/09/25 03:20:41;;;;;;;46.45;43.80;;;;;;;17.94;72.96;101497.59;5001805;28;102225;-55
2022/09/25 03:23:08;;;;;;;46.77;44.10;;;;;;;17.93;72.72;101498.72;4997042;28;104004;-55
2022/09/25 03:25:35;;;;;;;46.22;43.67;;;;;;;17.93;73.09;101495.97;4999043;28;102220;-54
2022/09/25 03:28:02;;;;;;;49.17;46.38;;;;;;;17.94;73.13;101499.53;5015243;28;103703;-55
2022/09/25 03:30:28;;;;;;;52.47;49.50;;;;;;;17.93;72.75;101498.72;5018357;28;102464;-55
2022/09/25 03:32:55;;;;;;;47.63;44.90;;;;;;;17.92;73.08;101502.59;5005364;28;104045;-55
2022/09/25 03:35:23;;;;;;;48.20;45.45;;;;;;;17.93;73.13;101498.72;4997362;28;102400;-54
2022/09/25 03:37:49;;;;;;;47.85;45.15;;;;;;;17.93;72.67;101509.75;5005131;28;101995;-55
2022/09/25 03:40:16;;;;;;;50.17;47.50;;;;;;;17.92;73.14;101508.09;5017627;28;103147;-55
2022/09/25 03:42:44;;;;;;;44.63;42.17;;;;;;;17.92;72.69;101519.13;5015228;28;104061;-55
2022/09/25 03:45:10;;;;;;;48.58;45.78;;;;;;;17.93;72.86;101519.94;5016616;28;102037;-54
2022/09/25 03:47:37;;;;;;;45.88;43.10;;;;;;;17.93;72.87;101519.94;5015900;28;102680;-54
2022/09/25 03:50:04;;;;;;;44.92;42.45;;;;;;;17.92;73.14;101521.88;5017565;28;102090;-54
2022/09/25 03:52:32;;;;;;;46.50;43.95;;;;;;;17.92;73.27;101524.63;5011951;28;103951;-54
2022/09/25 03:54:58;;;;;;;47.95;45.30;;;;;;;17.92;73.19;101519.13;5013644;28;103656;-55
2022/09/25 03:57:25;;;;;;;48.55;45.70;;;;;;;17.92;73.22;101524.63;5011425;28;102178;-55
2022/09/25 03:59:51;;;;;;;45.08;42.58;;;;;;;17.92;73.09;101515.53;4997561;28;102186;-55
2022/09/25 04:02:18;;;;;;;48.28;45.50;;;;;;;17.91;72.99;101514.72;5000525;28;103832;-55
2022/09/25 04:04:44;;;;;;;47.30;44.75;;;;;;;17.90;72.91;101521.34;5029041;27;102347;-55
2022/09/25 04:07:11;;;;;;;49.55;46.78;;;;;;;17.91;73.22;101514.72;5016346;28;102506;-55
2022/09/25 04:09:40;;;;;;;44.72;42.28;;;;;;;17.91;72.74;101511.97;5016329;28;102541;-54
2022/09/25 04:12:07;;;;;;;48.08;45.30;;;;;;;17.91;73.16;101522.16;5002731;28;103854;-55
2022/09/25 04:14:34;;;;;;;45.70;43.15;;;;;;;17.91;73.12;101519.41;4997081;28;102300;-55
2022/09/25 04:17:00;;;;;;;49.45;46.83;;;;;;;17.90;72.73;101518.59;4997727;28;101944;-55
2022/09/25 04:19:27;;;;;;;48.53;45.90;;;;;;;17.90;73.22;101521.34;5016361;28;102268;-55
2022/09/25 04:21:53;;;;;;;44.63;42.08;;;;;;;17.91;73.22;101522.97;5005218;28;103940;-55
2022/09/25 04:27:07;;;;;;;47.63;44.97;;;;;;;17.90;72.96;101532.38;5014922;28;102098;-54
2022/09/25 04:29:36;;;;;;;45.20;42.70;;;;;;;17.91;72.99;101527.66;5016299;28;102343;-55
2022/09/25 04:34:47;;;;;;;45.80;43.20;;;;;;;17.90;72.91;101526.84;5012182;28;102913;-55
2022/09/25 04:37:14;;;;;;;46.38;43.83;;;;;;;17.90;73.08;101526.03;5004227;28;102311;-54
2022/09/25 04:39:40;;;;;;;45.38;42.92;;;;;;;17.90;73.19;101532.38;5016633;28;102547;-53
2022/09/25 04:42:08;;;;;;;44.72;42.15;;;;;;;17.90;73.08;101521.34;5002373;28;103976;-54
2022/09/25 04:44:35;;;;;;;47.70;45.00;;;;;;;17.92;72.71;101529.28;5011832;28;102346;-54
2022/09/25 04:47:03;;;;;;;45.85;43.35;;;;;;;17.90;73.02;101521.34;5014716;28;102459;-53
2022/09/25 04:49:29;;;;;;;48.47;45.83;;;;;;;17.91;72.96;101516.66;5016840;28;102022;-55
2022/09/25 04:51:56;;;;;;;47.85;45.10;;;;;;;17.91;72.65;101522.97;5013801;28;103885;-54
2022/09/25 04:54:22;;;;;;;46.70;44.15;;;;;;;17.91;72.98;101513.91;5016000;28;102195;-55
2022/09/25 04:56:49;;;;;;;46.83;44.30;;;;;;;17.91;72.86;101514.72;5015049;28;102367;-54
2022/09/25 04:59:17;;;;;;;45.67;43.17;;;;;;;17.91;72.83;101500.94;5015855;28;102175;-55
2022/09/25 05:01:43;;;;;;;47.07;44.47;;;;;;;17.90;72.57;101504.81;5013903;28;103906;-55
2022/09/25 05:04:09;;;;;;;47.50;44.85;;;;;;;17.91;72.89;101509.22;5014822;28;102104;-56
2022/09/25 05:06:36;;;;;;;51.70;48.92;;;;;;;17.91;73.54;101517.47;4997385;28;102286;-55
2022/09/25 05:09:03;;;;;;;46.55;43.90;;;;;;;17.92;73.86;101508.09;4999395;28;102458;-54
2022/09/25 05:11:30;;;;;;;48.17;45.53;;;;;;;17.93;74.12;101503.41;5009283;28;103954;-55
2022/09/25 05:13:56;;;;;;;44.53;42.00;;;;;;;17.93;74.32;101511.69;5014978;28;102468;-55
2022/09/25 05:16:27;;;;;;;43.10;40.78;;;;;;;17.93;73.79;101504.22;5012606;28;101939;-55
2022/09/25 05:18:55;;;;;;;45.22;42.72;;;;;;;17.94;74.18;101505.84;5016426;28;102189;-54
2022/09/25 05:21:21;;;;;;;46.67;44.17;;;;;;;17.94;73.95;101505.84;5013051;28;103831;-54
2022/09/25 05:23:48;;;;;;;45.35;42.85;;;;;;;17.94;73.76;101510.56;5014713;28;102491;-54
2022/09/25 05:26:15;;;;;;;43.83;41.47;;;;;;;17.95;73.58;101506.66;4996469;28;102258;-55
2022/09/25 05:28:41;;;;;;;48.22;45.63;;;;;;;17.95;73.17;101506.66;4996226;28;102684;-55
2022/09/25 05:31:08;;;;;;;43.78;41.35;;;;;;;17.94;73.69;101505.84;5010764;28;103933;-54
2022/09/25 05:33:37;;;;;;;44.63;42.22;;;;;;;17.95;73.87;101506.66;4997185;28;102105;-55
2022/09/25 05:36:06;;;;;;;44.40;41.97;;;;;;;17.97;74.19;101507.19;5007076;28;102631;-55
2022/09/25 05:38:35;;;;;;;44.17;41.60;;;;;;;17.97;73.99;101513.53;5016341;28;102575;-54
2022/09/25 05:41:03;;;;;;;42.33;40.00;;;;;;;17.99;74.20;101510.44;5011715;28;104071;-54
2022/09/25 05:43:30;;;;;;;45.38;42.88;;;;;;;17.99;74.04;101511.28;5003987;28;102509;-54
2022/09/25 05:45:57;;;;;;;43.90;41.50;;;;;;;17.99;74.11;101514.03;5002870;28;102353;-55
2022/09/25 05:48:23;;;;;;;44.33;41.75;;;;;;;17.99;73.81;101514.03;5014426;28;102805;-55
2022/09/25 05:50:53;;;;;;;44.28;41.83;;;;;;;17.99;73.84;101513.19;5009499;28;103978;-57
2022/09/25 05:53:20;;;;;;;44.75;42.25;;;;;;;17.99;73.60;101516.81;5009273;28;102210;-54
2022/09/25 05:55:49;;;;;;;51.05;48.05;;;;;;;18.00;73.24;101521.19;5010435;28;102243;-55
2022/09/25 05:58:16;;;;;;;42.75;40.33;;;;;;;18.00;73.54;101529.44;5011336;28;102657;-54
2022/09/25 06:00:42;;;;;;;49.13;46.50;;;;;;;18.01;72.96;101522.81;5011883;28;103876;-54
2022/09/25 06:03:09;;;;;;;46.95;44.38;;;;;;;18.02;72.58;101518.13;5014453;28;102681;-54
2022/09/25 06:05:36;;;;;;;48.15;45.40;;;;;;;18.00;72.67;101515.66;5014529;28;102083;-55
2022/09/25 06:08:05;;;;;;;46.13;43.40;;;;;;;18.01;72.65;101514.53;5015384;28;102199;-55
2022/09/25 06:10:31;;;;;;;48.38;45.72;;;;;;;18.02;72.59;101513.41;5009247;28;103909;-54
2022/09/25 06:12:58;;;;;;;52.15;49.35;;;;;;;18.04;72.30;101524.16;5003401;28;102108;-54
2022/09/25 06:15:26;;;;;;;49.22;46.58;;;;;;;18.05;72.38;101516.69;5007029;28;102192;-55
2022/09/25 06:17:53;;;;;;;50.55;47.78;;;;;;;18.06;72.50;101523.84;5011849;28;102013;-55
2022/09/25 06:20:21;;;;;;;51.03;48.28;;;;;;;18.06;72.39;101518.31;5009400;28;104984;-55
2022/09/25 06:22:51;;;;;;;50.47;47.80;;;;;;;18.07;72.33;101514.44;5001056;28;102873;-54
2022/09/25 06:25:19;;;;;;;48.33;45.70;;;;;;;18.08;72.18;101510.59;4993465;28;102108;-54
2022/09/25 06:27:45;;;;;;;48.00;45.25;;;;;;;18.09;71.69;101517.72;4996374;28;102318;-54
2022/09/25 06:30:12;;;;;;;51.42;48.65;;;;;;;18.09;71.71;101521.28;5010474;28;104040;-55
2022/09/25 06:32:39;;;;;;;52.05;49.15;;;;;;;18.10;72.08;101506.38;5012763;28;102627;-54
2022/09/25 06:35:06;;;;;;;52.67;49.78;;;;;;;18.12;71.58;101511.63;5004570;28;102011;-54
2022/09/25 06:37:32;;;;;;;54.03;51.17;;;;;;;18.14;71.86;101517.63;5013497;28;102230;-55
2022/09/25 06:39:59;;;;;;;51.03;48.20;;;;;;;18.14;71.56;101514.88;5007739;28;103912;-54
2022/09/25 06:42:27;;;;;;;56.22;53.20;;;;;;;18.13;71.45;101508.53;5005118;28;102372;-55
2022/09/25 06:44:54;;;;;;;56.25;53.33;;;;;;;18.16;70.92;101512.63;5008234;28;102540;-55
2022/09/25 06:47:20;;;;;;;48.63;45.97;;;;;;;18.16;70.93;101507.13;5014926;28;102423;-55
2022/09/25 06:49:47;;;;;;;48.25;45.65;;;;;;;18.17;71.01;101508.75;4996989;28;103943;-55
2022/09/25 06:52:13;;;;;;;49.00;46.33;;;;;;;18.18;71.12;101504.91;5011761;28;102379;-55
2022/09/25 06:54:40;;;;;;;55.58;52.58;;;;;;;18.19;71.22;101507.34;5017221;28;102383;-56
2022/09/25 06:57:08;;;;;;;53.97;51.08;;;;;;;18.20;70.89;101508.97;5018378;28;102291;-54
2022/09/25 06:59:36;;;;;;;50.75;48.13;;;;;;;18.21;71.17;101504.28;5017137;28;104119;-56
2022/09/25 07:03:43;;;;;;;50.60;47.72;;;;;;;18.22;71.32;101508.69;5015799;28;102897;-54
2022/09/25 07:04:50;;;;;;;46.88;44.45;;;;;;;18.23;70.95;101510.31;5015834;28;102115;-54
2022/09/25 07:07:20;;;;;;;54.70;51.75;;;;;;;18.23;71.02;101513.06;5018360;28;102333;-55
2022/09/25 07:09:47;;;;;;;51.22;48.53;;;;;;;18.23;71.39;101511.13;5015741;28;104766;-54
2022/09/25 07:12:15;;;;;;;57.13;53.95;;;;;;;18.25;71.47;101506.13;5017574;28;102567;-55
2022/09/25 07:14:45;;;;;;;49.83;47.27;;;;;;;18.27;70.97;101502.25;5015963;28;102235;-55
2022/09/25 07:17:12;;;;;;;54.20;51.22;;;;;;;18.28;71.53;101504.69;5017811;28;102181;-55
2022/09/25 07:19:39;;;;;;;49.22;46.63;;;;;;;18.30;70.86;101513.47;5008519;28;103900;-54
2022/09/25 07:22:05;;;;;;;49.58;46.75;;;;;;;18.32;70.37;101504.91;4997489;28;102496;-54
2022/09/25 07:24:32;;;;;;;55.47;52.55;;;;;;;18.32;69.86;101504.91;4996669;28;102025;-54
2022/09/25 07:26:58;;;;;;;47.65;44.97;;;;;;;18.35;69.57;101501.53;5017495;28;102363;-54
2022/09/25 07:29:25;;;;;;;53.13;50.25;;;;;;;18.36;69.37;101501.25;5015438;28;103903;-54
2022/09/25 07:31:53;;;;;;;47.42;44.75;;;;;;;18.35;69.53;101496.84;5016221;28;102106;-54
2022/09/25 07:34:19;;;;;;;42.22;40.03;;;;;;;18.36;69.54;101498.50;5016856;28;102565;-55
2022/09/25 07:36:46;;;;;;;44.75;42.40;;;;;;;18.36;69.84;101490.22;5005745;28;102551;-54
2022/09/25 07:39:13;;;;;;;46.92;44.47;;;;;;;18.36;69.79;101484.72;5001963;28;103928;-54
2022/09/25 07:41:39;;;;;;;45.35;42.97;;;;;;;18.39;69.73;101475.84;5015653;28;102318;-54
2022/09/25 07:44:06;;;;;;;42.88;40.60;;;;;;;18.41;69.56;101481.84;5016404;28;102228;-55
2022/09/25 07:46:32;;;;;;;45.88;43.33;;;;;;;18.43;69.02;101485.13;5018012;28;102373;-55
2022/09/25 07:49:00;;;;;;;45.95;43.45;;;;;;;18.44;68.55;101485.94;5016525;28;104064;-54
2022/09/25 07:51:27;;;;;;;45.23;42.87;;;;;;;18.44;68.21;101485.94;5016263;28;102605;-54
2022/09/25 07:53:56;;;;;;;44.35;42.00;;;;;;;18.44;68.63;101495.03;5013246;28;102250;-54
2022/09/25 07:56:23;;;;;;;40.72;38.42;;;;;;;18.44;68.42;101492.25;5017034;28;102246;-54
2022/09/25 07:58:52;;;;;;;41.45;39.25;;;;;;;18.46;67.94;101480.94;5013366;28;104016;-54
2022/09/25 08:01:19;;;;;;;43.22;40.90;;;;;;;18.46;67.66;101484.53;5015522;28;102298;-54
2022/09/25 08:03:45;;;;;;;41.13;38.78;;;;;;;18.46;67.60;101484.53;5014085;28;102402;-54
2022/09/25 08:06:14;;;;;;;45.15;42.75;;;;;;;18.47;67.76;101480.63;5017403;28;102582;-54
2022/09/25 08:08:41;;;;;;;42.60;40.33;;;;;;;18.50;67.41;101479.22;5014101;28;103892;-54
2022/09/25 08:11:10;;;;;;;35.47;33.47;;;;;;;18.50;67.21;101473.69;5015976;28;102262;-57
2022/09/25 08:13:37;;;;;;;39.23;37.23;;;;;;;18.47;67.69;101472.38;5012750;28;102331;-54
2022/09/25 08:16:05;;;;;;;41.35;39.20;;;;;;;18.50;67.78;101484.72;5017118;28;102469;-54
2022/09/25 08:18:32;;;;;;;41.30;39.00;;;;;;;18.50;67.21;101473.69;5014867;28;103904;-54
2022/09/25 08:21:00;;;;;;;37.83;35.83;;;;;;;18.51;67.56;101477.28;5012843;28;102356;-58
2022/09/25 08:23:29;;;;;;;34.20;32.38;;;;;;;18.52;66.92;101476.13;5012727;28;101974;-55
2022/09/25 08:25:56;;;;;;;38.45;36.45;;;;;;;18.53;67.69;101466.75;5014550;28;102301;-57
2022/09/25 08:28:23;;;;;;;36.97;34.88;;;;;;;18.53;67.19;101458.47;5012682;28;103916;-54
2022/09/25 08:30:50;;;;;;;38.13;36.10;;;;;;;18.55;67.07;101456.25;5008654;28;102234;-54
2022/09/25 08:33:17;;;;;;;35.67;33.85;;;;;;;18.55;67.23;101464.50;5011804;28;102199;-55
2022/09/25 08:35:43;;;;;;;32.15;30.45;;;;;;;18.55;66.13;101468.06;5008222;28;102194;-54
2022/09/25 08:38:11;;;;;;;33.38;31.63;;;;;;;18.56;66.47;101460.63;5009290;28;103923;-55
2022/09/25 08:40:48;;;;;;;39.47;37.38;;;;;;;18.53;66.66;101462.03;5012362;28;102333;-55
2022/09/25 08:43:21;;;;;;;33.25;31.45;;;;;;;18.54;66.22;101471.97;5010199;28;102429;-54
2022/09/25 08:49:00;;;;;;;31.88;30.15;;;;;;;18.53;66.87;101452.97;5011197;28;107771;-54
2022/09/25 08:51:28;;;;;;;34.03;32.22;;;;;;;18.54;67.10;101460.13;5008672;28;102321;-55
2022/09/25 08:53:55;;;;;;;36.78;34.90;;;;;;;18.55;67.17;101447.97;5007528;28;102807;-54
2022/09/25 08:56:26;;;;;;;34.97;33.15;;;;;;;18.54;66.82;101455.44;5013379;28;102480;-54
2022/09/25 08:58:56;;;;;;;38.22;36.30;;;;;;;18.55;66.88;101453.47;5012116;28;104265;-55
2022/09/25 09:01:26;;;;;;;34.53;32.72;;;;;;;18.52;67.48;101448.56;4999675;28;102262;-54
2022/09/25 09:04:03;;;;;;;32.97;31.25;;;;;;;18.53;67.27;101447.44;5000901;28;102682;-56
2022/09/25 09:06:31;;;;;;;39.33;37.30;;;;;;;18.52;67.40;101446.63;4994234;28;102263;-54
2022/09/25 09:09:04;;;;;;;33.58;31.83;;;;;;;18.53;67.09;101455.72;5001850;28;103904;-54
2022/09/25 09:11:37;;;;;;;37.90;35.92;;;;;;;18.52;67.27;101452.16;5004581;28;102420;-54
2022/09/25 09:14:06;;;;;;;36.03;34.08;;;;;;;18.52;67.13;101443.06;4994780;28;102081;-54
2022/09/25 09:16:40;;;;;;;38.40;36.40;;;;;;;18.52;67.22;101437.56;4993467;28;102365;-55
2022/09/25 09:19:09;;;;;;;37.42;35.47;;;;;;;18.52;67.33;101443.88;5005139;28;103681;-54
2022/09/25 09:21:36;;;;;;;;;;;;;;;18.52;67.16;101438.38;5013417;28;102278;-54
2022/09/25 09:24:15;;;;;;;34.63;32.83;;;;;;;18.51;67.51;101441.44;5008176;28;102297;-54
2022/09/25 09:26:59;;;;;;;36.08;34.17;;;;;;;18.52;67.38;101432.84;5011961;28;102497;-54
2022/09/25 09:29:40;;;;;;;39.78;37.47;;;;;;;18.52;67.60;101437.56;5011891;28;104165;-54
2022/09/25 09:32:25;;;;;;;40.33;38.17;;;;;;;18.51;66.90;101430.41;5012458;28;102358;-54
2022/09/25 09:35:04;;;;;;;34.53;32.78;;;;;;;18.51;67.36;101433.16;5011852;28;102371;-55
2022/09/25 09:37:42;;;;;;;37.60;35.45;;;;;;;18.49;67.80;101428.75;5010598;28;102351;-54
2022/09/25 09:40:22;;;;;;;37.25;35.22;;;;;;;18.48;68.12;101426.31;5014911;28;103903;-54
2022/09/25 09:43:02;;;;;;;37.25;35.30;;;;;;;18.46;68.40;101426.66;5015324;28;102338;-54
2022/09/25 09:45:39;;;;;;;38.78;36.78;;;;;;;18.47;68.87;101430.22;5013326;28;102159;-54
2022/09/25 09:48:12;;;;;;;41.88;39.67;;;;;;;18.48;68.43;101418.06;5015583;28;102517;-54
2022/09/25 09:50:45;;;;;;;42.58;40.20;;;;;;;18.44;68.12;101406.84;5012511;28;104062;-54
2022/09/25 09:53:28;;;;;;;42.38;40.15;;;;;;;18.45;68.82;101402.13;5014669;28;102336;-54
2022/09/25 09:56:00;;;;;;;40.08;37.95;;;;;;;18.44;68.07;101406.03;5013982;28;102453;-54
2022/09/25 09:58:34;;;;;;;39.92;37.80;;;;;;;18.45;68.52;101402.94;5015711;28;102244;-54
2022/09/25 10:01:02;;;;;;;40.47;38.35;;;;;;;18.44;68.69;101401.31;5014723;28;103892;-54
2022/09/25 10:03:34;;;;;;;41.92;39.75;;;;;;;18.44;68.84;101393.06;5014426;28;102159;-49
2022/09/25 10:06:02;;;;;;;42.05;39.88;;;;;;;18.44;69.09;101378.47;5013508;28;102139;-54
2022/09/25 10:08:29;;;;;;;44.10;41.78;;;;;;;18.42;68.42;101381.50;5012429;28;102333;-54
2022/09/25 10:10:58;;;;;;;42.17;39.87;;;;;;;18.41;68.55;101365.28;5013646;28;104116;-54
2022/09/25 10:13:31;;;;;;;43.88;41.65;;;;;;;18.39;69.12;101362.84;5011900;28;103819;-54
2022/09/25 10:16:02;;;;;;;39.63;37.47;;;;;;;18.40;69.14;101370.00;5013586;28;102446;-54
2022/09/25 10:18:36;;;;;;;42.97;40.70;;;;;;;18.41;69.13;101362.53;5014945;28;102005;-53
2022/09/25 10:21:11;;;;;;;41.13;39.03;;;;;;;18.42;68.58;101356.69;5013607;28;104186;-54
2022/09/25 10:23:41;;;;;;;40.95;38.67;;;;;;;18.42;68.58;101355.88;5014231;28;102330;-54
2022/09/25 10:26:25;;;;;;;40.20;37.92;;;;;;;18.41;68.31;101348.75;5012797;28;102438;-54
2022/09/25 10:28:57;;;;;;;40.03;37.85;;;;;;;18.40;68.32;101345.19;5018362;28;102821;-55
2022/09/25 10:31:27;;;;;;;42.58;40.30;;;;;;;18.40;68.73;101336.91;5018002;28;104058;-55
2022/09/25 10:34:02;;;;;;;43.08;40.70;;;;;;;18.38;69.02;101333.66;5017318;28;102560;-55
2022/09/25 10:36:36;;;;;;;39.78;37.65;;;;;;;18.38;68.64;101335.59;5016636;28;102416;-55
2022/09/25 10:39:05;;;;;;;40.15;38.03;;;;;;;18.37;68.66;101326.50;5017090;28;102227;-54
2022/09/25 10:41:41;;;;;;;49.80;46.72;;;;;;;18.38;68.33;101319.06;5014008;28;103918;-55
2022/09/25 10:44:22;;;;;;;43.42;40.63;;;;;;;18.37;68.38;101332.03;5013623;28;102176;-55
2022/09/25 10:52:51;;;;;;;38.78;36.67;;;;;;;18.35;68.44;101323.25;5014676;28;104089;-54
2022/09/25 10:55:26;;;;;;;44.78;42.33;;;;;;;18.35;68.85;101328.75;5017722;28;102246;-54
2022/09/25 10:58:01;;;;;;;40.85;38.45;;;;;;;18.34;68.91;101329.88;5016720;28;102515;-54
2022/09/25 11:00:29;;;;;;;43.25;40.72;;;;;;;18.34;68.81;101321.63;5018428;28;102291;-54
2022/09/25 11:02:58;;;;;;;42.33;40.00;;;;;;;18.34;67.90;101313.34;5015954;28;104062;-55
2022/09/25 11:05:28;;;;;;;37.97;35.90;;;;;;;18.34;68.06;101307.84;5007990;28;102596;-55
2022/09/25 11:07:57;;;;;;;48.40;44.97;;;;;;;18.33;68.87;101303.47;5014867;28;103628;-54
2022/09/25 11:10:27;;;;;;;44.97;42.35;;;;;;;18.33;68.43;101308.16;5018619;28;102474;-54
2022/09/25 11:12:56;;;;;;;44.22;41.58;;;;;;;18.33;68.35;101308.16;5016715;28;103812;-55
2022/09/25 11:15:26;;;;;;;41.40;38.90;;;;;;;18.33;68.64;101303.47;5016190;28;103199;-54
2022/09/25 11:17:55;;;;;;;40.57;38.23;;;;;;;18.31;68.18;101294.66;5014619;28;102393;-55
2022/09/25 11:20:28;;;;;;;38.95;36.85;;;;;;;18.31;68.43;101297.44;5015999;28;102572;-54
2022/09/25 11:23:04;;;;;;;47.28;44.72;;;;;;;18.30;69.30;101290.28;5016666;28;103975;-55
2022/09/25 11:25:39;;;;;;;46.00;43.45;;;;;;;18.30;69.73;101279.28;5004799;28;102159;-55
2022/09/25 11:28:13;;;;;;;41.88;39.60;;;;;;;18.29;69.53;101277.66;5006816;28;102206;-54
2022/09/25 11:30:47;;;;;;;39.38;37.20;;;;;;;18.28;69.53;101284.28;5017454;28;102624;-54